Terminal Aerodrome Forecast
Issued by NWS Wilmington, OH

Current Version | Previous Version | Graphics & Text | Print | Product List | Glossary On
Versions: 1 2 3 4 5 6 7 8 9 10 11 12 13 14 15 16 17 18 19 20 21 22
000
FTUS41 KILN 171500 AAA
TAFDAY
TAF AMD
KDAY 171505Z 1715/1812 22015G24KT P6SM SCT018 SCT250
     FM172200 26013KT P6SM OVC035
     FM180500 28012KT P6SM OVC018=

USA.gov is the U.S. government's official web portal to all federal, state and local government web resources and services.